sensor_id;sensor_type;location;lat;lon;timestamp;P1;durP1;ratioP1;P2;durP2;ratioP2
22778;SDS011;11556;51.194;3.800;2023-05-07T00:01:45;18.77;;;8.00;;
22778;SDS011;11556;51.194;3.800;2023-05-07T00:04:10;15.18;;;8.20;;
22778;SDS011;11556;51.194;3.800;2023-05-07T00:06:36;15.77;;;7.30;;
22778;SDS011;11556;51.194;3.800;2023-05-07T00:09:02;17.30;;;7.75;;
22778;SDS011;11556;51.194;3.800;2023-05-07T00:11:29;15.35;;;7.57;;
22778;SDS011;11556;51.194;3.800;2023-05-07T00:13:54;12.35;;;7.00;;
22778;SDS011;11556;51.194;3.800;2023-05-07T00:16:20;13.50;;;7.40;;
22778;SDS011;11556;51.194;3.800;2023-05-07T00:18:46;11.38;;;6.93;;
22778;SDS011;11556;51.194;3.800;2023-05-07T00:21:11;16.48;;;7.60;;
22778;SDS011;11556;51.194;3.800;2023-05-07T00:23:37;11.93;;;7.10;;
22778;SDS011;11556;51.194;3.800;2023-05-07T00:26:03;13.35;;;7.25;;
22778;SDS011;11556;51.194;3.800;2023-05-07T00:28:29;13.85;;;7.50;;
22778;SDS011;11556;51.194;3.800;2023-05-07T00:30:55;14.18;;;6.70;;
22778;SDS011;11556;51.194;3.800;2023-05-07T00:33:21;12.95;;;7.40;;
22778;SDS011;11556;51.194;3.800;2023-05-07T00:35:47;10.38;;;6.78;;
22778;SDS011;11556;51.194;3.800;2023-05-07T00:38:13;16.60;;;6.97;;
22778;SDS011;11556;51.194;3.800;2023-05-07T00:40:39;11.35;;;6.90;;
22778;SDS011;11556;51.194;3.800;2023-05-07T00:43:04;9.93;;;6.60;;
22778;SDS011;11556;51.194;3.800;2023-05-07T00:45:30;15.95;;;7.03;;
22778;SDS011;11556;51.194;3.800;2023-05-07T00:47:57;17.10;;;7.45;;
22778;SDS011;11556;51.194;3.800;2023-05-07T00:50:24;15.95;;;7.88;;
22778;SDS011;11556;51.194;3.800;2023-05-07T00:52:51;12.73;;;7.20;;
22778;SDS011;11556;51.194;3.800;2023-05-07T00:55:17;10.52;;;7.32;;
22778;SDS011;11556;51.194;3.800;2023-05-07T00:57:43;15.20;;;8.10;;
22778;SDS011;11556;51.194;3.800;2023-05-07T01:00:10;13.23;;;7.63;;
22778;SDS011;11556;51.194;3.800;2023-05-07T01:02:40;16.17;;;8.25;;
22778;SDS011;11556;51.194;3.800;2023-05-07T01:05:07;14.35;;;8.10;;
22778;SDS011;11556;51.194;3.800;2023-05-07T01:07:35;14.98;;;8.02;;
22778;SDS011;11556;51.194;3.800;2023-05-07T01:10:02;12.98;;;7.80;;
22778;SDS011;11556;51.194;3.800;2023-05-07T01:12:28;18.17;;;8.55;;
22778;SDS011;11556;51.194;3.800;2023-05-07T01:14:55;14.02;;;8.20;;
22778;SDS011;11556;51.194;3.800;2023-05-07T01:17:22;13.38;;;8.18;;
22778;SDS011;11556;51.194;3.800;2023-05-07T01:19:48;13.77;;;7.90;;
22778;SDS011;11556;51.194;3.800;2023-05-07T01:22:15;12.77;;;7.70;;
22778;SDS011;11556;51.194;3.800;2023-05-07T01:24:45;14.80;;;8.40;;
22778;SDS011;11556;51.194;3.800;2023-05-07T01:27:11;15.45;;;8.30;;
22778;SDS011;11556;51.194;3.800;2023-05-07T01:29:36;15.63;;;7.93;;
22778;SDS011;11556;51.194;3.800;2023-05-07T01:32:02;12.88;;;8.23;;
22778;SDS011;11556;51.194;3.800;2023-05-07T01:34:30;14.70;;;7.85;;
22778;SDS011;11556;51.194;3.800;2023-05-07T01:36:57;14.60;;;8.45;;
22778;SDS011;11556;51.194;3.800;2023-05-07T01:39:24;15.52;;;8.88;;
22778;SDS011;11556;51.194;3.800;2023-05-07T01:41:52;14.45;;;8.35;;
22778;SDS011;11556;51.194;3.800;2023-05-07T01:44:22;11.98;;;8.27;;
22778;SDS011;11556;51.194;3.800;2023-05-07T01:46:48;13.23;;;8.68;;
22778;SDS011;11556;51.194;3.800;2023-05-07T01:49:15;16.15;;;8.45;;
22778;SDS011;11556;51.194;3.800;2023-05-07T01:51:41;15.80;;;8.73;;
22778;SDS011;11556;51.194;3.800;2023-05-07T01:54:07;13.63;;;8.15;;
22778;SDS011;11556;51.194;3.800;2023-05-07T01:56:33;19.15;;;8.77;;
22778;SDS011;11556;51.194;3.800;2023-05-07T01:58:59;14.43;;;8.23;;
22778;SDS011;11556;51.194;3.800;2023-05-07T02:01:25;12.70;;;7.85;;
22778;SDS011;11556;51.194;3.800;2023-05-07T02:03:51;17.13;;;8.43;;
22778;SDS011;11556;51.194;3.800;2023-05-07T02:06:16;17.08;;;7.95;;
22778;SDS011;11556;51.194;3.800;2023-05-07T02:08:42;11.77;;;7.45;;
22778;SDS011;11556;51.194;3.800;2023-05-07T02:11:08;14.00;;;8.23;;
22778;SDS011;11556;51.194;3.800;2023-05-07T02:13:34;13.05;;;8.40;;
22778;SDS011;11556;51.194;3.800;2023-05-07T02:16:00;16.80;;;8.20;;
22778;SDS011;11556;51.194;3.800;2023-05-07T02:18:26;13.05;;;7.40;;
22778;SDS011;11556;51.194;3.800;2023-05-07T02:20:51;11.55;;;7.80;;
22778;SDS011;11556;51.194;3.800;2023-05-07T02:23:17;13.23;;;7.47;;
22778;SDS011;11556;51.194;3.800;2023-05-07T02:25:43;16.40;;;7.55;;
22778;SDS011;11556;51.194;3.800;2023-05-07T02:28:08;12.23;;;7.25;;
22778;SDS011;11556;51.194;3.800;2023-05-07T02:30:35;16.23;;;7.45;;
22778;SDS011;11556;51.194;3.800;2023-05-07T02:33:01;20.08;;;8.25;;
22778;SDS011;11556;51.194;3.800;2023-05-07T02:35:27;16.77;;;8.48;;
22778;SDS011;11556;51.194;3.800;2023-05-07T02:37:53;20.05;;;8.32;;
22778;SDS011;11556;51.194;3.800;2023-05-07T02:40:18;14.35;;;8.73;;
22778;SDS011;11556;51.194;3.800;2023-05-07T02:42:46;17.33;;;8.73;;
22778;SDS011;11556;51.194;3.800;2023-05-07T02:45:11;18.80;;;9.10;;
22778;SDS011;11556;51.194;3.800;2023-05-07T02:47:37;17.67;;;8.88;;
22778;SDS011;11556;51.194;3.800;2023-05-07T02:50:03;13.23;;;7.65;;
22778;SDS011;11556;51.194;3.800;2023-05-07T02:52:29;14.20;;;8.00;;
22778;SDS011;11556;51.194;3.800;2023-05-07T02:54:55;11.57;;;8.13;;
22778;SDS011;11556;51.194;3.800;2023-05-07T02:57:20;10.57;;;8.00;;
22778;SDS011;11556;51.194;3.800;2023-05-07T02:59:46;13.18;;;8.30;;
22778;SDS011;11556;51.194;3.800;2023-05-07T03:02:11;11.23;;;7.07;;
22778;SDS011;11556;51.194;3.800;2023-05-07T03:04:38;12.13;;;7.93;;
22778;SDS011;11556;51.194;3.800;2023-05-07T03:07:04;16.20;;;9.40;;
22778;SDS011;11556;51.194;3.800;2023-05-07T03:09:30;12.98;;;8.13;;
22778;SDS011;11556;51.194;3.800;2023-05-07T03:11:56;14.32;;;8.38;;
22778;SDS011;11556;51.194;3.800;2023-05-07T03:14:21;15.38;;;8.30;;
22778;SDS011;11556;51.194;3.800;2023-05-07T03:16:48;16.13;;;8.68;;
22778;SDS011;11556;51.194;3.800;2023-05-07T03:19:14;19.23;;;8.75;;
22778;SDS011;11556;51.194;3.800;2023-05-07T03:21:40;15.73;;;8.10;;
22778;SDS011;11556;51.194;3.800;2023-05-07T03:24:06;13.65;;;7.88;;
22778;SDS011;11556;51.194;3.800;2023-05-07T03:26:32;13.30;;;8.10;;
22778;SDS011;11556;51.194;3.800;2023-05-07T03:28:57;13.90;;;7.63;;
22778;SDS011;11556;51.194;3.800;2023-05-07T03:31:23;15.15;;;7.90;;
22778;SDS011;11556;51.194;3.800;2023-05-07T03:36:18;16.88;;;7.95;;
22778;SDS011;11556;51.194;3.800;2023-05-07T03:38:45;18.80;;;8.07;;
22778;SDS011;11556;51.194;3.800;2023-05-07T03:41:11;12.07;;;8.30;;
22778;SDS011;11556;51.194;3.800;2023-05-07T03:43:37;14.63;;;8.65;;
22778;SDS011;11556;51.194;3.800;2023-05-07T03:46:02;14.00;;;8.07;;
22778;SDS011;11556;51.194;3.800;2023-05-07T03:48:28;15.35;;;8.20;;
22778;SDS011;11556;51.194;3.800;2023-05-07T03:50:54;18.73;;;8.93;;
22778;SDS011;11556;51.194;3.800;2023-05-07T03:53:21;14.90;;;8.60;;
22778;SDS011;11556;51.194;3.800;2023-05-07T03:55:46;14.27;;;8.52;;
22778;SDS011;11556;51.194;3.800;2023-05-07T03:58:15;17.70;;;9.05;;
22778;SDS011;11556;51.194;3.800;2023-05-07T04:00:41;14.82;;;8.40;;
22778;SDS011;11556;51.194;3.800;2023-05-07T04:03:07;16.35;;;8.65;;
22778;SDS011;11556;51.194;3.800;2023-05-07T04:05:33;13.80;;;8.55;;
22778;SDS011;11556;51.194;3.800;2023-05-07T04:07:58;15.73;;;9.27;;
22778;SDS011;11556;51.194;3.800;2023-05-07T04:10:24;17.75;;;8.85;;
22778;SDS011;11556;51.194;3.800;2023-05-07T04:12:50;18.48;;;9.10;;
22778;SDS011;11556;51.194;3.800;2023-05-07T04:15:16;17.02;;;9.05;;
22778;SDS011;11556;51.194;3.800;2023-05-07T04:17:42;13.68;;;8.80;;
22778;SDS011;11556;51.194;3.800;2023-05-07T04:20:14;15.95;;;9.77;;
22778;SDS011;11556;51.194;3.800;2023-05-07T04:22:41;21.38;;;8.95;;
22778;SDS011;11556;51.194;3.800;2023-05-07T04:25:07;18.13;;;9.27;;
22778;SDS011;11556;51.194;3.800;2023-05-07T04:27:34;15.70;;;9.77;;
22778;SDS011;11556;51.194;3.800;2023-05-07T04:30:00;15.23;;;9.38;;
22778;SDS011;11556;51.194;3.800;2023-05-07T04:32:27;16.48;;;9.00;;
22778;SDS011;11556;51.194;3.800;2023-05-07T04:34:54;15.52;;;8.88;;
22778;SDS011;11556;51.194;3.800;2023-05-07T04:37:20;14.55;;;9.50;;
22778;SDS011;11556;51.194;3.800;2023-05-07T04:39:46;18.52;;;10.32;;
22778;SDS011;11556;51.194;3.800;2023-05-07T04:42:15;20.30;;;10.88;;
22778;SDS011;11556;51.194;3.800;2023-05-07T04:44:42;22.98;;;11.70;;
22778;SDS011;11556;51.194;3.800;2023-05-07T04:47:08;18.48;;;10.38;;
22778;SDS011;11556;51.194;3.800;2023-05-07T04:49:34;18.92;;;10.32;;
22778;SDS011;11556;51.194;3.800;2023-05-07T04:51:59;17.00;;;10.40;;
22778;SDS011;11556;51.194;3.800;2023-05-07T04:54:26;15.85;;;9.98;;
22778;SDS011;11556;51.194;3.800;2023-05-07T04:56:51;16.73;;;9.63;;
22778;SDS011;11556;51.194;3.800;2023-05-07T04:59:18;14.98;;;10.00;;
22778;SDS011;11556;51.194;3.800;2023-05-07T05:01:44;18.52;;;10.73;;
22778;SDS011;11556;51.194;3.800;2023-05-07T05:04:09;21.38;;;10.65;;
22778;SDS011;11556;51.194;3.800;2023-05-07T05:06:35;16.45;;;10.50;;
22778;SDS011;11556;51.194;3.800;2023-05-07T05:09:01;15.90;;;10.07;;
22778;SDS011;11556;51.194;3.800;2023-05-07T05:11:26;18.58;;;9.75;;
22778;SDS011;11556;51.194;3.800;2023-05-07T05:13:52;24.63;;;11.52;;
22778;SDS011;11556;51.194;3.800;2023-05-07T05:16:18;20.88;;;11.25;;
22778;SDS011;11556;51.194;3.800;2023-05-07T05:18:44;15.07;;;10.63;;
22778;SDS011;11556;51.194;3.800;2023-05-07T05:21:09;17.60;;;11.13;;
22778;SDS011;11556;51.194;3.800;2023-05-07T05:23:35;17.73;;;11.82;;
22778;SDS011;11556;51.194;3.800;2023-05-07T05:26:01;23.27;;;12.68;;
22778;SDS011;11556;51.194;3.800;2023-05-07T05:28:26;19.15;;;11.70;;
22778;SDS011;11556;51.194;3.800;2023-05-07T05:30:53;22.75;;;11.40;;
22778;SDS011;11556;51.194;3.800;2023-05-07T05:33:18;19.90;;;11.82;;
22778;SDS011;11556;51.194;3.800;2023-05-07T05:35:44;18.17;;;11.55;;
22778;SDS011;11556;51.194;3.800;2023-05-07T05:38:10;18.90;;;11.45;;
22778;SDS011;11556;51.194;3.800;2023-05-07T05:40:36;24.83;;;12.48;;
22778;SDS011;11556;51.194;3.800;2023-05-07T05:43:01;20.30;;;11.25;;
22778;SDS011;11556;51.194;3.800;2023-05-07T05:45:27;24.45;;;12.43;;
22778;SDS011;11556;51.194;3.800;2023-05-07T05:47:53;25.42;;;13.48;;
22778;SDS011;11556;51.194;3.800;2023-05-07T05:50:20;18.88;;;11.75;;
22778;SDS011;11556;51.194;3.800;2023-05-07T05:52:46;23.98;;;13.85;;
22778;SDS011;11556;51.194;3.800;2023-05-07T05:55:12;28.52;;;14.13;;
22778;SDS011;11556;51.194;3.800;2023-05-07T05:57:38;27.73;;;15.27;;
22778;SDS011;11556;51.194;3.800;2023-05-07T06:00:03;29.95;;;13.18;;
22778;SDS011;11556;51.194;3.800;2023-05-07T06:02:30;22.42;;;10.77;;
22778;SDS011;11556;51.194;3.800;2023-05-07T06:04:55;21.38;;;9.85;;
22778;SDS011;11556;51.194;3.800;2023-05-07T06:07:21;17.15;;;7.68;;
22778;SDS011;11556;51.194;3.800;2023-05-07T06:09:46;16.23;;;6.85;;
22778;SDS011;11556;51.194;3.800;2023-05-07T06:12:12;18.88;;;6.85;;
22778;SDS011;11556;51.194;3.800;2023-05-07T06:14:38;13.43;;;6.45;;
22778;SDS011;11556;51.194;3.800;2023-05-07T06:17:03;12.27;;;6.40;;
22778;SDS011;11556;51.194;3.800;2023-05-07T06:19:30;13.50;;;6.85;;
22778;SDS011;11556;51.194;3.800;2023-05-07T06:21:56;15.98;;;6.50;;
22778;SDS011;11556;51.194;3.800;2023-05-07T06:24:21;14.35;;;6.90;;
22778;SDS011;11556;51.194;3.800;2023-05-07T06:26:47;12.77;;;7.00;;
22778;SDS011;11556;51.194;3.800;2023-05-07T06:29:13;11.82;;;6.68;;
22778;SDS011;11556;51.194;3.800;2023-05-07T06:31:39;14.23;;;7.15;;
22778;SDS011;11556;51.194;3.800;2023-05-07T06:34:04;18.02;;;7.97;;
22778;SDS011;11556;51.194;3.800;2023-05-07T06:36:30;17.42;;;8.00;;
22778;SDS011;11556;51.194;3.800;2023-05-07T06:38:56;15.48;;;7.00;;
22778;SDS011;11556;51.194;3.800;2023-05-07T06:41:21;15.68;;;7.25;;
22778;SDS011;11556;51.194;3.800;2023-05-07T06:43:47;13.60;;;6.80;;
22778;SDS011;11556;51.194;3.800;2023-05-07T06:46:13;12.77;;;6.63;;
22778;SDS011;11556;51.194;3.800;2023-05-07T06:48:38;9.32;;;6.28;;
22778;SDS011;11556;51.194;3.800;2023-05-07T06:51:04;10.73;;;6.13;;
22778;SDS011;11556;51.194;3.800;2023-05-07T06:53:30;12.88;;;6.40;;
22778;SDS011;11556;51.194;3.800;2023-05-07T06:55:56;12.32;;;6.18;;
22778;SDS011;11556;51.194;3.800;2023-05-07T06:58:22;16.00;;;6.90;;
22778;SDS011;11556;51.194;3.800;2023-05-07T07:00:48;14.98;;;6.93;;
22778;SDS011;11556;51.194;3.800;2023-05-07T07:03:13;11.02;;;5.35;;
22778;SDS011;11556;51.194;3.800;2023-05-07T07:05:42;10.25;;;5.03;;
22778;SDS011;11556;51.194;3.800;2023-05-07T07:08:08;10.23;;;5.20;;
22778;SDS011;11556;51.194;3.800;2023-05-07T07:10:34;12.65;;;5.05;;
22778;SDS011;11556;51.194;3.800;2023-05-07T07:13:00;13.38;;;5.43;;
22778;SDS011;11556;51.194;3.800;2023-05-07T07:15:26;6.95;;;4.10;;
22778;SDS011;11556;51.194;3.800;2023-05-07T07:17:52;7.63;;;4.25;;
22778;SDS011;11556;51.194;3.800;2023-05-07T07:20:17;8.25;;;4.32;;
22778;SDS011;11556;51.194;3.800;2023-05-07T07:22:43;9.73;;;4.65;;
22778;SDS011;11556;51.194;3.800;2023-05-07T07:25:08;11.23;;;4.50;;
22778;SDS011;11556;51.194;3.800;2023-05-07T07:27:34;7.28;;;4.32;;
22778;SDS011;11556;51.194;3.800;2023-05-07T07:30:01;7.70;;;5.10;;
22778;SDS011;11556;51.194;3.800;2023-05-07T07:32:26;6.70;;;4.53;;
22778;SDS011;11556;51.194;3.800;2023-05-07T07:34:52;6.80;;;4.60;;
22778;SDS011;11556;51.194;3.800;2023-05-07T07:37:17;7.32;;;4.53;;
22778;SDS011;11556;51.194;3.800;2023-05-07T07:39:43;11.00;;;4.50;;
22778;SDS011;11556;51.194;3.800;2023-05-07T07:42:09;7.47;;;5.03;;
22778;SDS011;11556;51.194;3.800;2023-05-07T07:44:34;11.05;;;5.20;;
22778;SDS011;11556;51.194;3.800;2023-05-07T07:47:00;10.60;;;6.25;;
22778;SDS011;11556;51.194;3.800;2023-05-07T07:49:26;10.90;;;6.95;;
22778;SDS011;11556;51.194;3.800;2023-05-07T07:51:52;12.98;;;7.80;;
22778;SDS011;11556;51.194;3.800;2023-05-07T07:54:17;12.43;;;7.75;;
22778;SDS011;11556;51.194;3.800;2023-05-07T07:56:43;11.68;;;6.63;;
22778;SDS011;11556;51.194;3.800;2023-05-07T07:59:08;11.10;;;5.38;;
22778;SDS011;11556;51.194;3.800;2023-05-07T08:01:34;11.25;;;5.45;;
22778;SDS011;11556;51.194;3.800;2023-05-07T08:04:00;10.25;;;4.85;;
22778;SDS011;11556;51.194;3.800;2023-05-07T08:06:29;7.45;;;4.78;;
22778;SDS011;11556;51.194;3.800;2023-05-07T08:08:54;9.45;;;4.25;;
22778;SDS011;11556;51.194;3.800;2023-05-07T08:11:20;8.73;;;4.75;;
22778;SDS011;11556;51.194;3.800;2023-05-07T08:13:46;7.88;;;4.97;;
22778;SDS011;11556;51.194;3.800;2023-05-07T08:16:12;8.93;;;4.60;;
22778;SDS011;11556;51.194;3.800;2023-05-07T08:18:38;11.98;;;6.13;;
22778;SDS011;11556;51.194;3.800;2023-05-07T08:21:04;7.43;;;5.32;;
22778;SDS011;11556;51.194;3.800;2023-05-07T08:23:30;12.57;;;6.30;;
22778;SDS011;11556;51.194;3.800;2023-05-07T08:25:55;10.05;;;6.03;;
22778;SDS011;11556;51.194;3.800;2023-05-07T08:28:21;10.30;;;6.57;;
22778;SDS011;11556;51.194;3.800;2023-05-07T08:30:47;11.30;;;7.40;;
22778;SDS011;11556;51.194;3.800;2023-05-07T08:33:12;14.27;;;6.57;;
22778;SDS011;11556;51.194;3.800;2023-05-07T08:35:38;10.98;;;6.50;;
22778;SDS011;11556;51.194;3.800;2023-05-07T08:38:04;7.90;;;5.47;;
22778;SDS011;11556;51.194;3.800;2023-05-07T08:40:29;9.70;;;5.80;;
22778;SDS011;11556;51.194;3.800;2023-05-07T08:43:02;8.75;;;5.03;;
22778;SDS011;11556;51.194;3.800;2023-05-07T08:45:28;7.45;;;4.18;;
22778;SDS011;11556;51.194;3.800;2023-05-07T08:47:58;6.85;;;3.92;;
22778;SDS011;11556;51.194;3.800;2023-05-07T08:50:25;11.52;;;3.97;;
22778;SDS011;11556;51.194;3.800;2023-05-07T08:52:50;6.43;;;3.13;;
22778;SDS011;11556;51.194;3.800;2023-05-07T08:55:16;8.32;;;3.17;;
22778;SDS011;11556;51.194;3.800;2023-05-07T08:57:42;4.28;;;3.00;;
22778;SDS011;11556;51.194;3.800;2023-05-07T09:00:08;4.70;;;3.13;;
22778;SDS011;11556;51.194;3.800;2023-05-07T09:02:35;7.53;;;2.95;;
22778;SDS011;11556;51.194;3.800;2023-05-07T09:05:01;5.22;;;3.05;;
22778;SDS011;11556;51.194;3.800;2023-05-07T09:07:27;6.20;;;3.00;;
22778;SDS011;11556;51.194;3.800;2023-05-07T09:09:52;8.75;;;3.53;;
22778;SDS011;11556;51.194;3.800;2023-05-07T09:12:20;8.10;;;3.28;;
22778;SDS011;11556;51.194;3.800;2023-05-07T09:14:46;5.35;;;3.25;;
22778;SDS011;11556;51.194;3.800;2023-05-07T09:17:12;5.68;;;2.67;;
22778;SDS011;11556;51.194;3.800;2023-05-07T09:19:38;5.97;;;2.60;;
22778;SDS011;11556;51.194;3.800;2023-05-07T09:22:04;4.55;;;2.58;;
22778;SDS011;11556;51.194;3.800;2023-05-07T09:24:32;8.73;;;2.60;;
22778;SDS011;11556;51.194;3.800;2023-05-07T09:27:02;4.60;;;2.60;;
22778;SDS011;11556;51.194;3.800;2023-05-07T09:29:29;5.18;;;2.70;;
22778;SDS011;11556;51.194;3.800;2023-05-07T09:32:00;5.97;;;2.47;;
22778;SDS011;11556;51.194;3.800;2023-05-07T09:34:26;5.63;;;2.53;;
22778;SDS011;11556;51.194;3.800;2023-05-07T09:36:52;6.15;;;2.90;;
22778;SDS011;11556;51.194;3.800;2023-05-07T09:39:19;8.82;;;2.67;;
22778;SDS011;11556;51.194;3.800;2023-05-07T09:41:45;7.88;;;2.72;;
22778;SDS011;11556;51.194;3.800;2023-05-07T09:44:12;5.53;;;2.50;;
22778;SDS011;11556;51.194;3.800;2023-05-07T09:46:43;6.07;;;2.47;;
22778;SDS011;11556;51.194;3.800;2023-05-07T09:49:11;3.97;;;2.45;;
22778;SDS011;11556;51.194;3.800;2023-05-07T09:51:45;5.32;;;2.60;;
22778;SDS011;11556;51.194;3.800;2023-05-07T09:54:14;4.65;;;2.63;;
22778;SDS011;11556;51.194;3.800;2023-05-07T09:56:41;7.15;;;2.72;;
22778;SDS011;11556;51.194;3.800;2023-05-07T09:59:13;6.93;;;3.00;;
22778;SDS011;11556;51.194;3.800;2023-05-07T10:01:41;8.15;;;3.03;;
22778;SDS011;11556;51.194;3.800;2023-05-07T10:04:07;6.90;;;2.83;;
22778;SDS011;11556;51.194;3.800;2023-05-07T10:06:34;4.45;;;3.00;;
22778;SDS011;11556;51.194;3.800;2023-05-07T10:09:01;5.32;;;3.33;;
22778;SDS011;11556;51.194;3.800;2023-05-07T10:11:27;7.55;;;4.90;;
22778;SDS011;11556;51.194;3.800;2023-05-07T10:13:54;6.10;;;4.60;;
22778;SDS011;11556;51.194;3.800;2023-05-07T10:16:20;7.30;;;5.30;;
22778;SDS011;11556;51.194;3.800;2023-05-07T10:18:46;8.10;;;5.60;;
22778;SDS011;11556;51.194;3.800;2023-05-07T10:21:19;10.43;;;6.50;;
22778;SDS011;11556;51.194;3.800;2023-05-07T10:23:50;9.15;;;6.47;;
22778;SDS011;11556;51.194;3.800;2023-05-07T10:26:23;11.30;;;5.43;;
22778;SDS011;11556;51.194;3.800;2023-05-07T10:28:56;9.30;;;4.68;;
22778;SDS011;11556;51.194;3.800;2023-05-07T10:34:14;15.60;;;9.57;;
22778;SDS011;11556;51.194;3.800;2023-05-07T10:36:59;22.08;;;11.70;;
22778;SDS011;11556;51.194;3.800;2023-05-07T10:39:25;17.40;;;9.98;;
22778;SDS011;11556;51.194;3.800;2023-05-07T10:41:51;12.15;;;5.80;;
22778;SDS011;11556;51.194;3.800;2023-05-07T10:44:27;13.18;;;7.95;;
22778;SDS011;11556;51.194;3.800;2023-05-07T10:47:15;15.23;;;8.15;;
22778;SDS011;11556;51.194;3.800;2023-05-07T10:52:17;74.43;;;38.55;;
22778;SDS011;11556;51.194;3.800;2023-05-07T10:54:44;51.05;;;25.63;;
22778;SDS011;11556;51.194;3.800;2023-05-07T11:00:02;22.20;;;11.48;;
22778;SDS011;11556;51.194;3.800;2023-05-07T11:05:25;38.35;;;19.27;;
22778;SDS011;11556;51.194;3.800;2023-05-07T11:13:42;274.13;;;168.38;;
22778;SDS011;11556;51.194;3.800;2023-05-07T11:16:19;115.40;;;65.68;;
22778;SDS011;11556;51.194;3.800;2023-05-07T11:18:49;118.60;;;70.45;;
22778;SDS011;11556;51.194;3.800;2023-05-07T11:21:32;20.48;;;12.65;;
22778;SDS011;11556;51.194;3.800;2023-05-07T11:24:03;100.72;;;59.30;;
22778;SDS011;11556;51.194;3.800;2023-05-07T11:26:31;141.15;;;86.03;;
22778;SDS011;11556;51.194;3.800;2023-05-07T11:29:18;97.60;;;56.50;;
22778;SDS011;11556;51.194;3.800;2023-05-07T11:31:51;83.55;;;45.22;;
22778;SDS011;11556;51.194;3.800;2023-05-07T11:34:24;24.00;;;13.75;;
22778;SDS011;11556;51.194;3.800;2023-05-07T11:36:51;135.32;;;71.68;;
22778;SDS011;11556;51.194;3.800;2023-05-07T11:39:27;186.93;;;98.63;;
22778;SDS011;11556;51.194;3.800;2023-05-07T11:41:55;137.85;;;69.78;;
22778;SDS011;11556;51.194;3.800;2023-05-07T11:44:21;122.65;;;64.53;;
22778;SDS011;11556;51.194;3.800;2023-05-07T11:46:46;115.35;;;61.08;;
22778;SDS011;11556;51.194;3.800;2023-05-07T11:49:13;211.40;;;114.60;;
22778;SDS011;11556;51.194;3.800;2023-05-07T11:51:39;125.40;;;67.70;;
22778;SDS011;11556;51.194;3.800;2023-05-07T11:54:07;81.60;;;43.58;;
22778;SDS011;11556;51.194;3.800;2023-05-07T11:56:36;45.55;;;23.50;;
22778;SDS011;11556;51.194;3.800;2023-05-07T11:59:02;21.15;;;11.50;;
22778;SDS011;11556;51.194;3.800;2023-05-07T12:01:27;57.28;;;33.03;;
22778;SDS011;11556;51.194;3.800;2023-05-07T12:03:53;147.65;;;85.38;;
22778;SDS011;11556;51.194;3.800;2023-05-07T12:06:19;42.45;;;22.50;;
22778;SDS011;11556;51.194;3.800;2023-05-07T12:08:45;17.77;;;11.25;;
22778;SDS011;11556;51.194;3.800;2023-05-07T12:11:22;49.58;;;29.60;;
22778;SDS011;11556;51.194;3.800;2023-05-07T12:13:49;123.55;;;60.10;;
22778;SDS011;11556;51.194;3.800;2023-05-07T12:16:14;121.85;;;61.38;;
22778;SDS011;11556;51.194;3.800;2023-05-07T12:18:40;132.25;;;68.25;;
22778;SDS011;11556;51.194;3.800;2023-05-07T12:21:07;100.13;;;50.88;;
22778;SDS011;11556;51.194;3.800;2023-05-07T12:23:36;82.60;;;44.72;;
22778;SDS011;11556;51.194;3.800;2023-05-07T12:26:02;76.70;;;33.95;;
22778;SDS011;11556;51.194;3.800;2023-05-07T12:28:28;58.85;;;25.50;;
22778;SDS011;11556;51.194;3.800;2023-05-07T12:30:55;42.63;;;20.27;;
22778;SDS011;11556;51.194;3.800;2023-05-07T12:33:25;49.22;;;25.13;;
22778;SDS011;11556;51.194;3.800;2023-05-07T12:35:54;37.88;;;20.05;;
22778;SDS011;11556;51.194;3.800;2023-05-07T12:38:21;48.65;;;26.60;;
22778;SDS011;11556;51.194;3.800;2023-05-07T12:40:48;53.55;;;26.23;;
22778;SDS011;11556;51.194;3.800;2023-05-07T12:43:19;41.67;;;21.05;;
22778;SDS011;11556;51.194;3.800;2023-05-07T12:45:53;35.72;;;19.42;;
22778;SDS011;11556;51.194;3.800;2023-05-07T12:48:20;43.70;;;22.00;;
22778;SDS011;11556;51.194;3.800;2023-05-07T12:50:50;50.45;;;25.15;;
22778;SDS011;11556;51.194;3.800;2023-05-07T12:53:16;64.50;;;29.85;;
22778;SDS011;11556;51.194;3.800;2023-05-07T12:55:45;64.88;;;31.60;;
22778;SDS011;11556;51.194;3.800;2023-05-07T13:00:54;61.20;;;30.63;;
22778;SDS011;11556;51.194;3.800;2023-05-07T13:05:56;69.75;;;34.70;;
22778;SDS011;11556;51.194;3.800;2023-05-07T13:08:30;65.22;;;31.08;;
22778;SDS011;11556;51.194;3.800;2023-05-07T13:10:57;47.60;;;24.70;;
22778;SDS011;11556;51.194;3.800;2023-05-07T13:13:25;23.23;;;11.98;;
22778;SDS011;11556;51.194;3.800;2023-05-07T13:15:50;5.22;;;2.92;;
22778;SDS011;11556;51.194;3.800;2023-05-07T13:18:16;51.70;;;24.92;;
22778;SDS011;11556;51.194;3.800;2023-05-07T13:20:42;39.38;;;21.05;;
22778;SDS011;11556;51.194;3.800;2023-05-07T13:23:08;13.35;;;7.13;;
22778;SDS011;11556;51.194;3.800;2023-05-07T13:25:33;6.07;;;3.58;;
22778;SDS011;11556;51.194;3.800;2023-05-07T13:27:59;23.15;;;9.95;;
22778;SDS011;11556;51.194;3.800;2023-05-07T13:30:25;9.35;;;4.55;;
22778;SDS011;11556;51.194;3.800;2023-05-07T13:32:51;5.70;;;2.20;;
22778;SDS011;11556;51.194;3.800;2023-05-07T13:35:18;2.97;;;2.03;;
22778;SDS011;11556;51.194;3.800;2023-05-07T13:37:44;4.85;;;2.33;;
22778;SDS011;11556;51.194;3.800;2023-05-07T13:40:10;3.47;;;2.22;;
22778;SDS011;11556;51.194;3.800;2023-05-07T13:42:36;3.05;;;2.20;;
22778;SDS011;11556;51.194;3.800;2023-05-07T13:45:01;5.18;;;3.10;;
22778;SDS011;11556;51.194;3.800;2023-05-07T13:47:30;3.13;;;2.45;;
22778;SDS011;11556;51.194;3.800;2023-05-07T13:49:55;6.90;;;2.63;;
22778;SDS011;11556;51.194;3.800;2023-05-07T13:52:21;4.32;;;2.20;;
22778;SDS011;11556;51.194;3.800;2023-05-07T13:54:47;2.42;;;2.22;;
22778;SDS011;11556;51.194;3.800;2023-05-07T13:57:12;4.20;;;2.60;;
22778;SDS011;11556;51.194;3.800;2023-05-07T13:59:38;5.60;;;3.60;;
22778;SDS011;11556;51.194;3.800;2023-05-07T14:02:04;7.10;;;3.83;;
22778;SDS011;11556;51.194;3.800;2023-05-07T14:04:30;7.13;;;3.28;;
22778;SDS011;11556;51.194;3.800;2023-05-07T14:06:56;5.20;;;3.40;;
22778;SDS011;11556;51.194;3.800;2023-05-07T14:09:21;9.90;;;4.50;;
22778;SDS011;11556;51.194;3.800;2023-05-07T14:11:47;7.45;;;4.32;;
22778;SDS011;11556;51.194;3.800;2023-05-07T14:14:16;8.05;;;3.92;;
22778;SDS011;11556;51.194;3.800;2023-05-07T14:16:42;4.05;;;2.55;;
22778;SDS011;11556;51.194;3.800;2023-05-07T14:19:08;6.28;;;3.30;;
22778;SDS011;11556;51.194;3.800;2023-05-07T14:21:33;8.80;;;3.70;;
22778;SDS011;11556;51.194;3.800;2023-05-07T14:23:59;15.25;;;6.10;;
22778;SDS011;11556;51.194;3.800;2023-05-07T14:26:25;23.92;;;9.63;;
22778;SDS011;11556;51.194;3.800;2023-05-07T14:28:53;32.22;;;12.80;;
22778;SDS011;11556;51.194;3.800;2023-05-07T14:31:20;35.47;;;15.70;;
22778;SDS011;11556;51.194;3.800;2023-05-07T14:33:46;38.92;;;16.23;;
22778;SDS011;11556;51.194;3.800;2023-05-07T14:36:11;40.67;;;16.88;;
22778;SDS011;11556;51.194;3.800;2023-05-07T14:38:37;40.97;;;17.13;;
22778;SDS011;11556;51.194;3.800;2023-05-07T14:41:03;38.63;;;15.90;;
22778;SDS011;11556;51.194;3.800;2023-05-07T14:43:29;37.55;;;15.77;;
22778;SDS011;11556;51.194;3.800;2023-05-07T14:45:54;46.28;;;19.42;;
22778;SDS011;11556;51.194;3.800;2023-05-07T14:48:20;41.33;;;17.90;;
22778;SDS011;11556;51.194;3.800;2023-05-07T14:50:48;53.50;;;22.27;;
22778;SDS011;11556;51.194;3.800;2023-05-07T14:53:14;71.22;;;29.17;;
22778;SDS011;11556;51.194;3.800;2023-05-07T14:55:40;66.03;;;27.30;;